sensor_id;sensor_type;location;lat;lon;timestamp;pressure;altitude;pressure_sealevel;temperature;humidity
7836;BME280;3963;42.658;23.298;2023-05-03T00:00:59;59638.75;;;12.04;62.88
7836;BME280;3963;42.658;23.298;2023-05-03T00:03:27;59603.69;;;11.95;62.40
7836;BME280;3963;42.658;23.298;2023-05-03T00:05:55;59618.22;;;11.94;61.78
7836;BME280;3963;42.658;23.298;2023-05-03T00:08:22;59599.78;;;11.87;62.26
7836;BME280;3963;42.658;23.298;2023-05-03T00:10:49;59627.25;;;11.86;61.81
7836;BME280;3963;42.658;23.298;2023-05-03T00:13:16;59613.06;;;11.80;61.65
7836;BME280;3963;42.658;23.298;2023-05-03T00:15:43;59582.28;;;11.75;62.16
7836;BME280;3963;42.658;23.298;2023-05-03T00:18:09;59592.03;;;11.72;62.54
7836;BME280;3963;42.658;23.298;2023-05-03T00:20:38;59611.28;;;11.73;62.24
7836;BME280;3963;42.658;23.298;2023-05-03T00:23:05;59581.13;;;11.72;61.68
7836;BME280;3963;42.658;23.298;2023-05-03T00:25:34;59549.19;;;11.63;62.13
7836;BME280;3963;42.658;23.298;2023-05-03T00:28:00;59605.19;;;11.62;61.70
7836;BME280;3963;42.658;23.298;2023-05-03T00:30:27;59560.53;;;11.62;62.53
7836;BME280;3963;42.658;23.298;2023-05-03T00:32:54;59542.22;;;11.57;62.56
7836;BME280;3963;42.658;23.298;2023-05-03T00:35:21;59589.81;;;11.53;63.04
7836;BME280;3963;42.658;23.298;2023-05-03T00:37:49;59542.88;;;11.45;62.57
7836;BME280;3963;42.658;23.298;2023-05-03T00:40:16;59535.56;;;11.43;62.79
7836;BME280;3963;42.658;23.298;2023-05-03T00:42:43;59613.44;;;11.46;62.93
7836;BME280;3963;42.658;23.298;2023-05-03T00:45:11;59594.19;;;11.45;63.46
7836;BME280;3963;42.658;23.298;2023-05-03T00:47:38;59537.69;;;11.45;63.60
7836;BME280;3963;42.658;23.298;2023-05-03T00:50:07;59545.31;;;11.40;62.75
7836;BME280;3963;42.658;23.298;2023-05-03T00:52:36;59578.94;;;11.38;62.57
7836;BME280;3963;42.658;23.298;2023-05-03T00:55:07;59524.56;;;11.40;63.24
7836;BME280;3963;42.658;23.298;2023-05-03T00:57:34;59570.53;;;11.35;62.40
7836;BME280;3963;42.658;23.298;2023-05-03T01:00:02;59529.94;;;11.31;62.54
7836;BME280;3963;42.658;23.298;2023-05-03T01:02:29;59530.31;;;11.26;62.78
7836;BME280;3963;42.658;23.298;2023-05-03T01:04:55;59516.03;;;11.18;62.62
7836;BME280;3963;42.658;23.298;2023-05-03T01:07:27;59544.91;;;11.13;62.59
7836;BME280;3963;42.658;23.298;2023-05-03T01:10:02;59520.06;;;11.14;63.45
7836;BME280;3963;42.658;23.298;2023-05-03T01:12:38;59460.84;;;11.09;63.96
7836;BME280;3963;42.658;23.298;2023-05-03T01:15:13;59462.88;;;11.09;63.30
7836;BME280;3963;42.658;23.298;2023-05-03T01:17:47;59490.22;;;11.05;63.15
7836;BME280;3963;42.658;23.298;2023-05-03T01:20:20;59490.97;;;10.96;62.93
7836;BME280;3963;42.658;23.298;2023-05-03T01:22:55;59487.13;;;10.90;63.91
7836;BME280;3963;42.658;23.298;2023-05-03T01:25:27;59478.22;;;10.87;64.72
7836;BME280;3963;42.658;23.298;2023-05-03T01:27:54;59483.84;;;10.85;64.17
7836;BME280;3963;42.658;23.298;2023-05-03T01:30:22;59468.28;;;10.85;64.19
7836;BME280;3963;42.658;23.298;2023-05-03T01:32:58;59467.25;;;10.84;64.46
7836;BME280;3963;42.658;23.298;2023-05-03T01:35:35;59487.78;;;10.79;64.80
7836;BME280;3963;42.658;23.298;2023-05-03T01:38:03;59417.78;;;10.76;64.91
7836;BME280;3963;42.658;23.298;2023-05-03T01:40:37;59457.69;;;10.77;64.53
7836;BME280;3963;42.658;23.298;2023-05-03T01:43:07;59456.63;;;10.76;65.44
7836;BME280;3963;42.658;23.298;2023-05-03T01:45:35;59466.81;;;10.71;65.05
7836;BME280;3963;42.658;23.298;2023-05-03T01:48:03;59453.31;;;10.71;64.90
7836;BME280;3963;42.658;23.298;2023-05-03T01:50:34;59459.50;;;10.69;65.36
7836;BME280;3963;42.658;23.298;2023-05-03T01:53:00;59466.72;;;10.69;66.02
7836;BME280;3963;42.658;23.298;2023-05-03T01:55:27;59449.16;;;10.69;65.98
7836;BME280;3963;42.658;23.298;2023-05-03T01:57:55;59453.78;;;10.69;65.55
7836;BME280;3963;42.658;23.298;2023-05-03T02:00:22;59450.03;;;10.65;66.05
7836;BME280;3963;42.658;23.298;2023-05-03T02:02:50;59459.69;;;10.60;65.28
7836;BME280;3963;42.658;23.298;2023-05-03T02:05:17;59435.22;;;10.56;66.21
7836;BME280;3963;42.658;23.298;2023-05-03T02:07:43;59435.16;;;10.53;66.18
7836;BME280;3963;42.658;23.298;2023-05-03T02:10:10;59396.69;;;10.49;65.89
7836;BME280;3963;42.658;23.298;2023-05-03T02:12:39;59423.09;;;10.49;66.69
7836;BME280;3963;42.658;23.298;2023-05-03T02:15:09;59441.13;;;10.47;66.16
7836;BME280;3963;42.658;23.298;2023-05-03T02:17:36;59427.19;;;10.48;66.22
7836;BME280;3963;42.658;23.298;2023-05-03T02:20:05;59401.78;;;10.46;67.31
7836;BME280;3963;42.658;23.298;2023-05-03T02:22:34;59425.06;;;10.46;67.09
7836;BME280;3963;42.658;23.298;2023-05-03T02:25:01;59395.09;;;10.47;67.08
7836;BME280;3963;42.658;23.298;2023-05-03T02:27:28;59421.50;;;10.48;67.56
7836;BME280;3963;42.658;23.298;2023-05-03T02:29:54;59466.66;;;10.51;67.56
7836;BME280;3963;42.658;23.298;2023-05-03T02:32:23;59406.69;;;10.53;67.21
7836;BME280;3963;42.658;23.298;2023-05-03T02:34:49;59424.63;;;10.48;67.35
7836;BME280;3963;42.658;23.298;2023-05-03T02:37:18;59416.41;;;10.50;67.64
7836;BME280;3963;42.658;23.298;2023-05-03T02:39:45;59418.47;;;10.50;68.27
7836;BME280;3963;42.658;23.298;2023-05-03T02:42:12;59421.66;;;10.53;68.01
7836;BME280;3963;42.658;23.298;2023-05-03T02:44:39;59405.44;;;10.47;67.71
7836;BME280;3963;42.658;23.298;2023-05-03T02:47:06;59437.38;;;10.43;68.33
7836;BME280;3963;42.658;23.298;2023-05-03T02:49:35;59408.38;;;10.43;68.14
7836;BME280;3963;42.658;23.298;2023-05-03T02:52:02;59436.31;;;10.42;67.68
7836;BME280;3963;42.658;23.298;2023-05-03T02:54:28;59384.56;;;10.42;68.42
7836;BME280;3963;42.658;23.298;2023-05-03T02:56:55;59415.09;;;10.42;67.41
7836;BME280;3963;42.658;23.298;2023-05-03T02:59:22;59389.56;;;10.37;68.25
7836;BME280;3963;42.658;23.298;2023-05-03T03:01:49;59416.34;;;10.33;68.25
7836;BME280;3963;42.658;23.298;2023-05-03T03:04:16;59405.56;;;10.35;69.02
7836;BME280;3963;42.658;23.298;2023-05-03T03:06:46;59397.25;;;10.35;68.71
7836;BME280;3963;42.658;23.298;2023-05-03T03:09:13;59398.25;;;10.33;68.23
7836;BME280;3963;42.658;23.298;2023-05-03T03:11:40;59417.56;;;10.39;68.53
7836;BME280;3963;42.658;23.298;2023-05-03T03:14:07;59396.97;;;10.42;69.37
7836;BME280;3963;42.658;23.298;2023-05-03T03:16:34;59419.19;;;10.41;68.99
7836;BME280;3963;42.658;23.298;2023-05-03T03:19:01;59432.13;;;10.41;68.63
7836;BME280;3963;42.658;23.298;2023-05-03T03:21:27;59419.88;;;10.46;69.05
7836;BME280;3963;42.658;23.298;2023-05-03T03:23:58;59438.53;;;10.47;68.77
7836;BME280;3963;42.658;23.298;2023-05-03T03:26:25;59432.03;;;10.53;68.61
7836;BME280;3963;42.658;23.298;2023-05-03T03:28:51;59415.88;;;10.50;69.06
7836;BME280;3963;42.658;23.298;2023-05-03T03:31:18;59416.84;;;10.48;68.49
7836;BME280;3963;42.658;23.298;2023-05-03T03:33:46;59430.94;;;10.52;68.73
7836;BME280;3963;42.658;23.298;2023-05-03T03:36:14;59437.75;;;10.53;69.21
7836;BME280;3963;42.658;23.298;2023-05-03T03:38:40;59409.09;;;10.48;68.76
7836;BME280;3963;42.658;23.298;2023-05-03T03:41:08;59415.78;;;10.47;69.11
7836;BME280;3963;42.658;23.298;2023-05-03T03:43:35;59418.00;;;10.52;68.06
7836;BME280;3963;42.658;23.298;2023-05-03T03:46:02;59407.09;;;10.51;68.29
7836;BME280;3963;42.658;23.298;2023-05-03T03:48:29;59428.00;;;10.57;68.73
7836;BME280;3963;42.658;23.298;2023-05-03T03:50:56;59420.66;;;10.54;68.62
7836;BME280;3963;42.658;23.298;2023-05-03T03:53:23;59436.22;;;10.54;67.98
7836;BME280;3963;42.658;23.298;2023-05-03T03:55:50;59394.09;;;10.49;68.15
7836;BME280;3963;42.658;23.298;2023-05-03T03:58:18;59421.13;;;10.52;68.11
7836;BME280;3963;42.658;23.298;2023-05-03T04:00:45;59408.09;;;10.50;68.86
7836;BME280;3963;42.658;23.298;2023-05-03T04:03:12;59435.06;;;10.51;67.82
7836;BME280;3963;42.658;23.298;2023-05-03T04:05:39;59413.81;;;10.50;68.16
7836;BME280;3963;42.658;23.298;2023-05-03T04:08:06;59396.06;;;10.46;69.08
7836;BME280;3963;42.658;23.298;2023-05-03T04:10:32;59437.75;;;10.53;67.96
7836;BME280;3963;42.658;23.298;2023-05-03T04:12:59;59413.81;;;10.50;68.63
7836;BME280;3963;42.658;23.298;2023-05-03T04:15:28;59426.94;;;10.55;68.08
7836;BME280;3963;42.658;23.298;2023-05-03T04:17:54;59424.25;;;10.53;68.65
7836;BME280;3963;42.658;23.298;2023-05-03T04:20:21;59427.19;;;10.48;68.43
7836;BME280;3963;42.658;23.298;2023-05-03T04:22:49;59414.72;;;10.46;68.75
7836;BME280;3963;42.658;23.298;2023-05-03T04:25:15;59401.78;;;10.46;68.95
7836;BME280;3963;42.658;23.298;2023-05-03T04:27:43;59407.09;;;10.51;69.34
7836;BME280;3963;42.658;23.298;2023-05-03T04:30:10;59417.56;;;10.54;68.15
7836;BME280;3963;42.658;23.298;2023-05-03T04:32:41;59406.59;;;10.51;69.45
7836;BME280;3963;42.658;23.298;2023-05-03T04:35:08;59443.28;;;10.49;68.97
7836;BME280;3963;42.658;23.298;2023-05-03T04:37:37;59407.56;;;10.49;69.66
7836;BME280;3963;42.658;23.298;2023-05-03T04:40:06;59402.84;;;10.47;69.27
7836;BME280;3963;42.658;23.298;2023-05-03T04:42:34;59438.09;;;10.49;69.57
7836;BME280;3963;42.658;23.298;2023-05-03T04:45:01;59383.78;;;10.34;69.68
7836;BME280;3963;42.658;23.298;2023-05-03T04:47:31;59402.66;;;10.42;69.80
7836;BME280;3963;42.658;23.298;2023-05-03T04:49:59;59404.28;;;10.44;70.39
7836;BME280;3963;42.658;23.298;2023-05-03T04:52:26;59434.34;;;10.45;70.35
7836;BME280;3963;42.658;23.298;2023-05-03T04:54:53;59441.75;;;10.50;70.43
7836;BME280;3963;42.658;23.298;2023-05-03T04:57:20;59389.91;;;10.47;69.54
7836;BME280;3963;42.658;23.298;2023-05-03T04:59:47;59406.34;;;10.43;70.26
7836;BME280;3963;42.658;23.298;2023-05-03T05:02:14;59384.94;;;10.38;71.52
7836;BME280;3963;42.658;23.298;2023-05-03T05:04:41;59381.34;;;10.39;73.10
7836;BME280;3963;42.658;23.298;2023-05-03T05:07:09;59414.91;;;10.37;76.06
7836;BME280;3963;42.658;23.298;2023-05-03T05:09:36;59395.66;;;10.33;78.92
7836;BME280;3963;42.658;23.298;2023-05-03T05:12:03;59382.66;;;10.16;81.90
7836;BME280;3963;42.658;23.298;2023-05-03T05:14:30;59357.06;;;9.94;83.51
7836;BME280;3963;42.658;23.298;2023-05-03T05:16:58;59354.38;;;9.92;82.56
7836;BME280;3963;42.658;23.298;2023-05-03T05:19:24;59324.97;;;9.93;83.20
7836;BME280;3963;42.658;23.298;2023-05-03T05:21:51;59349.84;;;9.95;83.75
7836;BME280;3963;42.658;23.298;2023-05-03T05:24:20;59340.56;;;9.96;84.56
7836;BME280;3963;42.658;23.298;2023-05-03T05:26:47;59339.16;;;9.85;84.09
7836;BME280;3963;42.658;23.298;2023-05-03T05:29:14;59364.66;;;9.89;86.12
7836;BME280;3963;42.658;23.298;2023-05-03T05:31:42;59378.28;;;9.95;85.31
7836;BME280;3963;42.658;23.298;2023-05-03T05:34:09;59333.16;;;10.06;84.70
7836;BME280;3963;42.658;23.298;2023-05-03T05:36:36;59363.34;;;10.13;84.16
7836;BME280;3963;42.658;23.298;2023-05-03T05:39:02;59337.16;;;10.02;82.72
7836;BME280;3963;42.658;23.298;2023-05-03T05:41:31;59365.69;;;10.05;84.28
7836;BME280;3963;42.658;23.298;2023-05-03T05:43:58;59361.22;;;10.11;84.39
7836;BME280;3963;42.658;23.298;2023-05-03T05:46:25;59364.44;;;10.14;84.59
7836;BME280;3963;42.658;23.298;2023-05-03T05:48:52;59336.44;;;10.12;85.35
7836;BME280;3963;42.658;23.298;2023-05-03T05:51:19;59351.88;;;10.09;86.86
7836;BME280;3963;42.658;23.298;2023-05-03T05:53:46;59335.94;;;9.96;87.99
7836;BME280;3963;42.658;23.298;2023-05-03T05:56:12;59346.28;;;9.96;88.17
7836;BME280;3963;42.658;23.298;2023-05-03T05:58:43;59308.66;;;9.85;88.99
7836;BME280;3963;42.658;23.298;2023-05-03T06:01:09;59336.03;;;9.84;86.99
7836;BME280;3963;42.658;23.298;2023-05-03T06:03:37;59308.66;;;9.85;86.92
7836;BME280;3963;42.658;23.298;2023-05-03T06:06:04;59313.31;;;9.85;88.38
7836;BME280;3963;42.658;23.298;2023-05-03T06:08:30;59339.78;;;9.88;89.24
7836;BME280;3963;42.658;23.298;2023-05-03T06:10:57;59322.56;;;9.84;88.35
7836;BME280;3963;42.658;23.298;2023-05-03T06:13:24;59320.53;;;9.84;90.01
7836;BME280;3963;42.658;23.298;2023-05-03T06:15:52;59341.75;;;9.85;91.32
7836;BME280;3963;42.658;23.298;2023-05-03T06:18:19;59351.56;;;9.84;89.46
7836;BME280;3963;42.658;23.298;2023-05-03T06:20:48;59311.00;;;9.78;92.78
7836;BME280;3963;42.658;23.298;2023-05-03T06:23:15;59313.50;;;9.75;91.57
7836;BME280;3963;42.658;23.298;2023-05-03T06:25:44;59337.94;;;9.79;92.60
7836;BME280;3963;42.658;23.298;2023-05-03T06:28:12;59326.59;;;9.80;93.27
7836;BME280;3963;42.658;23.298;2023-05-03T06:30:38;59329.88;;;9.86;93.88
7836;BME280;3963;42.658;23.298;2023-05-03T06:33:11;59331.50;;;9.87;94.30
7836;BME280;3963;42.658;23.298;2023-05-03T06:35:37;59342.38;;;9.88;95.03
7836;BME280;3963;42.658;23.298;2023-05-03T06:38:05;59345.28;;;9.98;93.59
7836;BME280;3963;42.658;23.298;2023-05-03T06:40:32;59370.88;;;10.05;92.76
7836;BME280;3963;42.658;23.298;2023-05-03T06:42:58;59370.16;;;10.14;93.09
7836;BME280;3963;42.658;23.298;2023-05-03T06:45:25;59313.69;;;10.12;93.89
7836;BME280;3963;42.658;23.298;2023-05-03T06:47:52;59369.97;;;10.09;95.19
7836;BME280;3963;42.658;23.298;2023-05-03T06:50:20;59361.22;;;10.11;92.53
7836;BME280;3963;42.658;23.298;2023-05-03T06:52:48;59393.34;;;10.12;91.14
7836;BME280;3963;42.658;23.298;2023-05-03T06:55:15;59343.91;;;10.19;90.18
7836;BME280;3963;42.658;23.298;2023-05-03T06:57:42;59382.81;;;10.21;89.76
7836;BME280;3963;42.658;23.298;2023-05-03T07:00:12;59375.16;;;10.24;89.46
7836;BME280;3963;42.658;23.298;2023-05-03T07:02:40;59401.25;;;10.31;89.12
7836;BME280;3963;42.658;23.298;2023-05-03T07:05:07;59384.22;;;10.32;87.20
7836;BME280;3963;42.658;23.298;2023-05-03T07:07:35;59387.69;;;10.43;87.47
7836;BME280;3963;42.658;23.298;2023-05-03T07:10:02;59428.81;;;10.50;87.03
7836;BME280;3963;42.658;23.298;2023-05-03T07:12:29;59427.81;;;10.51;86.42
7836;BME280;3963;42.658;23.298;2023-05-03T07:14:56;59418.69;;;10.57;87.19
7836;BME280;3963;42.658;23.298;2023-05-03T07:17:24;59442.00;;;10.57;87.00
7836;BME280;3963;42.658;23.298;2023-05-03T07:19:51;59402.91;;;10.65;86.82
7836;BME280;3963;42.658;23.298;2023-05-03T07:22:18;59460.59;;;10.87;86.08
7836;BME280;3963;42.658;23.298;2023-05-03T07:24:50;59437.91;;;10.90;85.65
7836;BME280;3963;42.658;23.298;2023-05-03T07:27:18;59457.84;;;10.82;85.27
7836;BME280;3963;42.658;23.298;2023-05-03T07:29:45;59477.84;;;10.91;85.76
7836;BME280;3963;42.658;23.298;2023-05-03T07:32:12;59476.66;;;11.02;85.03
7836;BME280;3963;42.658;23.298;2023-05-03T07:34:39;59490.13;;;11.18;84.03
7836;BME280;3963;42.658;23.298;2023-05-03T07:37:05;59531.22;;;11.22;84.72
7836;BME280;3963;42.658;23.298;2023-05-03T07:39:32;59518.69;;;11.35;83.83
7836;BME280;3963;42.658;23.298;2023-05-03T07:42:00;59556.09;;;11.53;82.75
7836;BME280;3963;42.658;23.298;2023-05-03T07:44:27;59549.41;;;11.54;82.82
7836;BME280;3963;42.658;23.298;2023-05-03T07:46:55;59562.25;;;11.66;82.01
7836;BME280;3963;42.658;23.298;2023-05-03T07:49:22;59573.44;;;11.59;83.00
7836;BME280;3963;42.658;23.298;2023-05-03T07:51:50;59562.53;;;11.59;82.24
7836;BME280;3963;42.658;23.298;2023-05-03T07:54:16;59568.31;;;11.62;83.11
7836;BME280;3963;42.658;23.298;2023-05-03T07:56:43;59562.97;;;11.57;83.36
7836;BME280;3963;42.658;23.298;2023-05-03T07:59:11;59514.56;;;11.36;84.57
7836;BME280;3963;42.658;23.298;2023-05-03T08:01:38;59518.81;;;11.54;83.95
7836;BME280;3963;42.658;23.298;2023-05-03T08:04:04;59538.97;;;11.37;85.48
7836;BME280;3963;42.658;23.298;2023-05-03T08:06:32;59536.00;;;11.41;86.42
7836;BME280;3963;42.658;23.298;2023-05-03T08:08:59;59539.56;;;11.54;85.73
7836;BME280;3963;42.658;23.298;2023-05-03T08:11:26;59555.75;;;11.57;85.79
7836;BME280;3963;42.658;23.298;2023-05-03T08:13:53;59561.25;;;11.68;85.32
7836;BME280;3963;42.658;23.298;2023-05-03T08:16:21;59641.97;;;12.07;84.32
7836;BME280;3963;42.658;23.298;2023-05-03T08:18:48;59685.44;;;12.33;81.89
7836;BME280;3963;42.658;23.298;2023-05-03T08:21:14;59672.50;;;12.50;81.33
7836;BME280;3963;42.658;23.298;2023-05-03T08:23:42;59704.94;;;12.56;81.19
7836;BME280;3963;42.658;23.298;2023-05-03T08:26:09;59650.16;;;12.34;81.43
7836;BME280;3963;42.658;23.298;2023-05-03T08:28:38;59703.03;;;12.62;80.24
7836;BME280;3963;42.658;23.298;2023-05-03T08:31:05;59735.31;;;12.95;78.93
7836;BME280;3963;42.658;23.298;2023-05-03T08:33:33;59792.91;;;13.54;76.84
7836;BME280;3963;42.658;23.298;2023-05-03T08:36:00;59902.63;;;14.13;72.40
7836;BME280;3963;42.658;23.298;2023-05-03T08:38:27;59973.69;;;14.65;70.43
7836;BME280;3963;42.658;23.298;2023-05-03T08:40:57;60065.94;;;15.41;66.24
7836;BME280;3963;42.658;23.298;2023-05-03T08:43:26;60212.88;;;16.40;61.20
7836;BME280;3963;42.658;23.298;2023-05-03T08:45:54;60272.47;;;16.86;59.54
7836;BME280;3963;42.658;23.298;2023-05-03T08:48:20;60336.13;;;17.43;57.88
7836;BME280;3963;42.658;23.298;2023-05-03T08:50:50;60438.66;;;18.16;54.92
7836;BME280;3963;42.658;23.298;2023-05-03T08:53:17;60405.63;;;18.00;54.31
7836;BME280;3963;42.658;23.298;2023-05-03T08:55:44;60279.44;;;17.07;57.61
7836;BME280;3963;42.658;23.298;2023-05-03T08:58:11;60200.03;;;16.30;60.76
7836;BME280;3963;42.658;23.298;2023-05-03T09:00:38;60173.25;;;15.95;61.89
7836;BME280;3963;42.658;23.298;2023-05-03T09:03:06;60086.09;;;15.36;64.98
7836;BME280;3963;42.658;23.298;2023-05-03T09:05:34;60070.94;;;15.19;67.13
7836;BME280;3963;42.658;23.298;2023-05-03T09:08:05;60045.84;;;15.18;66.53
7836;BME280;3963;42.658;23.298;2023-05-03T09:10:34;60089.38;;;15.24;66.91
7836;BME280;3963;42.658;23.298;2023-05-03T09:13:02;60078.91;;;15.39;67.08
7836;BME280;3963;42.658;23.298;2023-05-03T09:15:29;60152.88;;;15.96;65.08
7836;BME280;3963;42.658;23.298;2023-05-03T09:18:12;60259.34;;;16.69;61.88
7836;BME280;3963;42.658;23.298;2023-05-03T09:20:40;60298.56;;;17.15;59.47
7836;BME280;3963;42.658;23.298;2023-05-03T09:23:11;60378.72;;;17.48;57.31
7836;BME280;3963;42.658;23.298;2023-05-03T09:25:45;60342.03;;;17.31;58.09
7836;BME280;3963;42.658;23.298;2023-05-03T09:28:14;60365.88;;;17.24;58.05
7836;BME280;3963;42.658;23.298;2023-05-03T09:30:41;60254.41;;;16.62;60.19
7836;BME280;3963;42.658;23.298;2023-05-03T09:33:08;60237.41;;;16.38;62.11
7836;BME280;3963;42.658;23.298;2023-05-03T09:35:36;60217.84;;;16.32;62.40
7836;BME280;3963;42.658;23.298;2023-05-03T09:38:03;60250.97;;;16.53;61.99
7836;BME280;3963;42.658;23.298;2023-05-03T09:40:31;60277.88;;;16.91;60.75
7836;BME280;3963;42.658;23.298;2023-05-03T09:43:05;60250.81;;;16.63;61.20
7836;BME280;3963;42.658;23.298;2023-05-03T09:45:33;60347.84;;;17.02;59.88
7836;BME280;3963;42.658;23.298;2023-05-03T09:48:01;60430.16;;;17.82;58.33
7836;BME280;3963;42.658;23.298;2023-05-03T09:50:30;60561.47;;;18.97;54.16
7836;BME280;3963;42.658;23.298;2023-05-03T09:53:00;60623.63;;;19.50;51.74
7836;BME280;3963;42.658;23.298;2023-05-03T09:55:35;60718.53;;;19.89;50.33
7836;BME280;3963;42.658;23.298;2023-05-03T09:58:02;60764.81;;;20.37;48.04
7836;BME280;3963;42.658;23.298;2023-05-03T10:00:35;60783.53;;;20.62;47.57
7836;BME280;3963;42.658;23.298;2023-05-03T10:03:06;60722.56;;;20.00;48.64
7836;BME280;3963;42.658;23.298;2023-05-03T10:05:39;60662.44;;;19.47;50.93
7836;BME280;3963;42.658;23.298;2023-05-03T10:08:09;60637.91;;;19.21;51.81
7836;BME280;3963;42.658;23.298;2023-05-03T10:10:42;60626.06;;;19.13;52.31
7836;BME280;3963;42.658;23.298;2023-05-03T10:13:10;60689.91;;;19.67;51.18
7836;BME280;3963;42.658;23.298;2023-05-03T10:15:39;60623.09;;;19.17;52.53
7836;BME280;3963;42.658;23.298;2023-05-03T10:18:08;60685.16;;;19.51;51.33
7836;BME280;3963;42.658;23.298;2023-05-03T10:20:38;60730.16;;;20.07;50.35
7836;BME280;3963;42.658;23.298;2023-05-03T10:23:08;60690.00;;;19.70;50.58
7836;BME280;3963;42.658;23.298;2023-05-03T10:25:38;60714.16;;;19.85;51.03
7836;BME280;3963;42.658;23.298;2023-05-03T10:28:06;60745.81;;;20.19;48.90
7836;BME280;3963;42.658;23.298;2023-05-03T10:30:34;60679.41;;;19.67;50.23
7836;BME280;3963;42.658;23.298;2023-05-03T10:33:29;60636.19;;;19.32;52.20
7836;BME280;3963;42.658;23.298;2023-05-03T10:35:58;60562.28;;;18.44;53.72
7836;BME280;3963;42.658;23.298;2023-05-03T10:38:27;60548.16;;;18.60;55.52
7836;BME280;3963;42.658;23.298;2023-05-03T10:40:55;60492.16;;;18.17;56.37
7836;BME280;3963;42.658;23.298;2023-05-03T10:43:43;60466.84;;;18.13;57.29
7836;BME280;3963;42.658;23.298;2023-05-03T10:46:33;60446.06;;;17.72;59.15
7836;BME280;3963;42.658;23.298;2023-05-03T10:49:17;60407.53;;;17.48;61.02
7836;BME280;3963;42.658;23.298;2023-05-03T10:51:44;60396.34;;;17.43;61.28
7836;BME280;3963;42.658;23.298;2023-05-03T10:54:11;60349.28;;;17.13;62.81
7836;BME280;3963;42.658;23.298;2023-05-03T10:56:50;60315.09;;;17.08;63.04
7836;BME280;3963;42.658;23.298;2023-05-03T10:59:18;60333.44;;;16.94;64.54
7836;BME280;3963;42.658;23.298;2023-05-03T11:01:47;60321.97;;;16.95;65.17
7836;BME280;3963;42.658;23.298;2023-05-03T11:04:23;60323.50;;;16.94;65.51
7836;BME280;3963;42.658;23.298;2023-05-03T11:06:50;60284.34;;;16.97;64.84
7836;BME280;3963;42.658;23.298;2023-05-03T11:09:29;60333.69;;;17.01;64.56
7836;BME280;3963;42.658;23.298;2023-05-03T11:12:02;60354.06;;;17.15;63.74
7836;BME280;3963;42.658;23.298;2023-05-03T11:14:29;60354.56;;;17.31;62.71
7836;BME280;3963;42.658;23.298;2023-05-03T11:16:55;60288.09;;;16.83;63.83
7836;BME280;3963;42.658;23.298;2023-05-03T11:19:22;60280.03;;;16.93;63.46
7836;BME280;3963;42.658;23.298;2023-05-03T11:21:50;60282.06;;;16.75;64.41
7836;BME280;3963;42.658;23.298;2023-05-03T11:24:17;60282.34;;;16.68;64.75
7836;BME280;3963;42.658;23.298;2023-05-03T11:26:45;60281.88;;;16.70;64.74
7836;BME280;3963;42.658;23.298;2023-05-03T11:29:15;60331.94;;;16.80;65.01
7836;BME280;3963;42.658;23.298;2023-05-03T11:31:43;60325.88;;;16.87;64.79
7836;BME280;3963;42.658;23.298;2023-05-03T11:34:10;60325.66;;;17.11;64.25
7836;BME280;3963;42.658;23.298;2023-05-03T11:36:37;60324.41;;;17.05;63.64
7836;BME280;3963;42.658;23.298;2023-05-03T11:39:06;60313.88;;;16.88;65.24
7836;BME280;3963;42.658;23.298;2023-05-03T11:41:33;60322.16;;;17.00;65.64
7836;BME280;3963;42.658;23.298;2023-05-03T11:44:00;60397.59;;;17.49;64.08
7836;BME280;3963;42.658;23.298;2023-05-03T11:46:31;60445.75;;;17.94;63.21
7836;BME280;3963;42.658;23.298;2023-05-03T11:49:00;60427.75;;;17.72;63.39
7836;BME280;3963;42.658;23.298;2023-05-03T11:51:27;60371.56;;;17.68;62.99
7836;BME280;3963;42.658;23.298;2023-05-03T11:53:54;60417.09;;;17.67;63.33
7836;BME280;3963;42.658;23.298;2023-05-03T11:56:22;60403.75;;;17.45;65.15
7836;BME280;3963;42.658;23.298;2023-05-03T11:58:51;60389.56;;;17.58;63.75
7836;BME280;3963;42.658;23.298;2023-05-03T12:01:19;60413.31;;;17.63;64.86
7836;BME280;3963;42.658;23.298;2023-05-03T12:03:52;60438.50;;;17.65;64.39
7836;BME280;3963;42.658;23.298;2023-05-03T12:06:19;60382.97;;;17.50;65.96
7836;BME280;3963;42.658;23.298;2023-05-03T12:08:46;60396.81;;;17.55;66.56
7836;BME280;3963;42.658;23.298;2023-05-03T12:11:13;60377.31;;;17.37;67.64
7836;BME280;3963;42.658;23.298;2023-05-03T12:13:40;60366.41;;;17.25;68.17
7836;BME280;3963;42.658;23.298;2023-05-03T12:16:08;60327.81;;;17.13;68.96
7836;BME280;3963;42.658;23.298;2023-05-03T12:18:46;60318.75;;;16.92;69.23
7836;BME280;3963;42.658;23.298;2023-05-03T12:21:16;60292.00;;;16.75;69.55
7836;BME280;3963;42.658;23.298;2023-05-03T12:23:42;60220.44;;;16.47;71.64
7836;BME280;3963;42.658;23.298;2023-05-03T12:26:09;60206.97;;;16.20;72.18
7836;BME280;3963;42.658;23.298;2023-05-03T12:28:37;60198.25;;;16.09;73.46
7836;BME280;3963;42.658;23.298;2023-05-03T12:31:03;60166.34;;;15.77;74.84
7836;BME280;3963;42.658;23.298;2023-05-03T12:33:30;60128.91;;;15.66;76.64
7836;BME280;3963;42.658;23.298;2023-05-03T12:35:58;60160.50;;;15.74;76.41
7836;BME280;3963;42.658;23.298;2023-05-03T12:38:26;60099.16;;;15.50;76.91
7836;BME280;3963;42.658;23.298;2023-05-03T12:40:52;60084.88;;;15.30;78.74
7836;BME280;3963;42.658;23.298;2023-05-03T12:43:19;60071.50;;;15.20;79.24
7836;BME280;3963;42.658;23.298;2023-05-03T12:45:46;60067.78;;;15.19;79.98
7836;BME280;3963;42.658;23.298;2023-05-03T12:48:13;60078.22;;;15.19;80.34
7836;BME280;3963;42.658;23.298;2023-05-03T12:50:40;60047.78;;;14.98;82.33
7836;BME280;3963;42.658;23.298;2023-05-03T12:53:07;60019.97;;;15.08;82.47
7836;BME280;3963;42.658;23.298;2023-05-03T12:55:35;60039.97;;;14.98;82.97
7836;BME280;3963;42.658;23.298;2023-05-03T12:58:04;60054.63;;;14.99;84.01
7836;BME280;3963;42.658;23.298;2023-05-03T13:00:31;60033.50;;;14.91;84.46
7836;BME280;3963;42.658;23.298;2023-05-03T13:02:58;60016.78;;;14.76;87.08
7836;BME280;3963;42.658;23.298;2023-05-03T13:05:25;59982.13;;;14.68;89.66
7836;BME280;3963;42.658;23.298;2023-05-03T13:07:51;59950.09;;;14.45;93.42
7836;BME280;3963;42.658;23.298;2023-05-03T13:10:18;59969.78;;;14.27;94.32
7836;BME280;3963;42.658;23.298;2023-05-03T13:12:47;59956.69;;;14.10;96.39
7836;BME280;3963;42.658;23.298;2023-05-03T13:15:14;59927.88;;;14.05;99.87
7836;BME280;3963;42.658;23.298;2023-05-03T13:17:40;59862.13;;;13.84;100.00